• Join FlightAware (Why Join?)
  • Login
  • US Flag 
12:44AM EDT


 

Airport Tracker/Info


-or-


 

Live Flight TrackerFlight Track Log ✈ QXE2087 ✈ 08-Jul-2013 ✈ KALW - KSEA

Flight Track Log - Related Links

Times and Time Zones

All times are in EDT time to prevent confusion due to time zone crossing. See the QXE2087 flight status page for this flight to view local times or setup timezone preferences in your user account.

Time Position Orientation Groundspeed Altitude Reporting Facility
EDT Latitude Longitude Course Direction KTS MPH feet Rate Location/Type
09:44AM 46.1970 -118.8182 286° West  Level FlightAware Approximate
09:45AM 46.2198 -118.9256 287° West  Level FlightAware Approximate
09:46AM 46.2373 -119.0069 287° West  Level FlightAware Approximate
09:47AM 46.2500 -119.0894 270° West  Level FlightAware Approximate
09:48AM 46.2740 -119.1961 290° West  Level FlightAware Approximate
09:49AM 46.3006 -119.3021 290° West  Level FlightAware Approximate
09:50AM 46.3271 -119.4083 290° West  Level FlightAware Approximate
09:51AM 46.3497 -119.5155 290° West  Level FlightAware Approximate
09:52AM 46.3711 -119.6220 286° West  Level FlightAware Approximate
09:53AM 46.3969 -119.7284 294° West  Level FlightAware Approximate
09:54AM 46.4280 -119.8321 294° West  Level FlightAware Approximate
09:55AM 46.4485 -119.9410 284° West  Level FlightAware Approximate
09:56AM 46.4739 -120.0480 290° West  Level FlightAware Approximate
09:57AM 46.4997 -120.1548 289° West  Level FlightAware Approximate
09:58AM 46.5255 -120.2618 289° West  Level FlightAware Approximate
09:59AM 46.5512 -120.3688 289° West  Level FlightAware Approximate
10:00AM 46.5815 -120.4729 299° West  Level FlightAware Approximate
10:01AM 46.6199 -120.5714 314° West  Level FlightAware Approximate
10:02AM 46.6684 -120.6595 302° West  Level FlightAware Approximate
10:03AM 46.7151 -120.7484 326° Northwest  Level FlightAware Approximate
10:04AM 46.7581 -120.8382 299° West  Level FlightAware Approximate
10:05AM 46.7955 -120.9381 299° West  Level FlightAware Approximate
10:06AM 46.8405 -121.0310 306° West  Level FlightAware Approximate
10:07AM 46.8838 -121.1258 303° West  Level FlightAware Approximate
10:08AM 46.9264 -121.2215 303° West  Level FlightAware Approximate
10:09AM 46.9688 -121.3172 303° West  Level FlightAware Approximate
10:10AM 47.0190 -121.3926 303° West  Level FlightAware Approximate
10:11AM 47.0615 -121.4884 303° West  Level FlightAware Approximate
10:12AM 47.0963 -121.5894 310° West  Level FlightAware Approximate
10:13AM 47.1465 -121.6771 310° West  Level FlightAware Approximate
10:14AM 47.1862 -121.7724 306° West  Level FlightAware Approximate
10:15AM 47.2342 -121.8605 301° West  Level FlightAware Approximate
10:16AM 47.2738 -121.9595 301° West  Level FlightAware Approximate
10:17AM 47.3127 -122.0588 306° West  Level FlightAware Approximate
10:18AM 47.3580 -122.1493 306° West  Level FlightAware Approximate
10:19AM 47.4043 -122.2419 306° West  Level FlightAware Approximate
10:20AM 47.4333 -122.3000 306° West  Level FlightAware Approximate
10:21AM 47.4499 -122.3118 306° West  Level Estimated
10:22AM 47.4499 -122.3118 306° West  Level Estimated
10:23AM 47.4499 -122.3118 306° West  Level Estimated
10:24AM 47.4499 -122.3118 211° Southwest  Level Estimated
10:25AM 47.4499 -122.3118 211° Southwest  Level Estimated
10:26AM 47.4499 -122.3118 211° Southwest  Level Estimated
10:27AM 47.4499 -122.3118 176° South  Level Estimated
10:28AM 47.4499 -122.3118 176° South  Level Estimated
10:29AM 47.4499 -122.3118 176° South  Level Estimated
10:30AM 47.4499 -122.3118 176° South  Level Estimated
10:31AM 47.4499 -122.3118 34° Northeast  Level Estimated
10:32AM 47.4499 -122.3118 34° Northeast  Level Estimated
10:33AM 47.4499 -122.3118 34° Northeast  Level Estimated
10:34AM 47.4499 -122.3118 34° Northeast  Level Estimated
10:35AM 47.4499 -122.3118 34° Northeast  Level Estimated
10:36AM 47.4499 -122.3118 34° Northeast  Level Estimated
10:37AM 47.4499 -122.3118 34° Northeast  Level Estimated
10:38AM 47.4499 -122.3118 34° Northeast  Level Estimated
10:39AM 47.4499 -122.3118 34° Northeast  Level Estimated
10:40AM 47.4499 -122.3118 34° Northeast  Level Estimated
10:41AM 47.4499 -122.3118 34° Northeast  Level Estimated